createdAt,value
2018-03-15T11:31:30.682Z,55.30
2018-03-15T11:39:55.200Z,54.90
2018-03-15T11:42:25.074Z,55.60
2018-03-15T11:44:54.070Z,57.10
2018-03-15T11:47:22.857Z,57.80
2018-03-15T11:49:52.208Z,58.30
2018-03-15T11:52:21.052Z,58.60
2018-03-15T11:54:50.041Z,58.30
2018-03-15T11:57:19.599Z,59.10
2018-03-15T11:59:50.028Z,59.00
2018-03-15T12:02:21.413Z,58.00
2018-03-15T12:04:50.670Z,57.90
2018-03-15T12:07:19.670Z,58.50
2018-03-15T12:09:49.229Z,58.60
2018-03-15T12:12:18.692Z,58.70
2018-03-15T12:14:47.584Z,58.60
2018-03-15T12:17:16.205Z,57.90
2018-03-15T12:19:44.847Z,58.60
2018-03-15T12:22:13.559Z,59.20
2018-03-15T12:24:42.144Z,59.10
2018-03-15T12:27:10.748Z,59.10
2018-03-15T12:29:39.498Z,59.50
2018-03-15T12:32:08.293Z,59.90
2018-03-15T12:34:36.834Z,59.80
2018-03-15T12:37:05.550Z,59.30
2018-03-15T12:39:35.456Z,59.70
2018-03-15T12:42:05.465Z,59.50
2018-03-15T12:44:34.177Z,59.50
2018-03-15T12:47:02.920Z,59.40
2018-03-15T12:49:31.705Z,59.30
2018-03-15T12:52:00.435Z,58.70
2018-03-15T12:54:29.151Z,58.50
2018-03-15T12:56:57.938Z,58.40
2018-03-15T12:59:26.756Z,58.50
2018-03-15T13:01:55.564Z,59.00
2018-03-15T13:04:24.216Z,58.00
2018-03-15T13:06:53.713Z,58.40
2018-03-15T13:09:22.873Z,58.90
2018-03-15T13:11:51.931Z,58.00
2018-03-15T13:14:20.944Z,59.20
2018-03-15T13:16:49.677Z,58.50
2018-03-15T13:19:18.347Z,59.70
2018-03-15T13:21:46.950Z,58.90
2018-03-15T13:24:15.506Z,59.30
2018-03-15T13:26:44.974Z,61.40
2018-03-15T13:29:13.643Z,61.30
2018-03-15T13:31:43.310Z,65.60
2018-03-15T13:34:12.015Z,65.60
2018-03-15T13:36:40.693Z,67.90
2018-03-15T13:39:10.276Z,68.20
2018-03-15T13:41:39.192Z,68.10
2018-03-15T13:44:09.290Z,70.10
2018-03-15T13:46:38.279Z,69.40
2018-03-15T13:49:07.727Z,69.90
2018-03-15T13:51:36.379Z,69.80
2018-03-15T13:54:05.200Z,70.10
2018-03-15T13:56:33.883Z,70.90
2018-03-15T13:59:02.643Z,69.30
2018-03-15T14:01:31.422Z,70.60
2018-03-15T14:04:01.122Z,73.00
2018-03-15T14:06:29.816Z,72.90
2018-03-15T14:08:58.578Z,73.40
2018-03-15T14:11:28.300Z,73.40
2018-03-15T14:13:59.637Z,73.60
2018-03-15T14:16:28.647Z,73.60
2018-03-15T14:18:57.578Z,72.40
2018-03-15T14:21:27.556Z,71.60
2018-03-15T14:23:57.080Z,71.70
2018-03-15T14:26:27.055Z,72.10
2018-03-15T14:28:55.970Z,72.10
2018-03-15T14:31:24.770Z,72.10
2018-03-15T14:33:53.932Z,72.90
2018-03-15T14:36:22.872Z,73.30
2018-03-15T14:38:52.427Z,71.30
2018-03-15T14:41:21.929Z,71.30
2018-03-15T14:43:51.785Z,71.80
2018-03-15T14:46:20.586Z,71.50
2018-03-15T14:48:49.484Z,71.10
2018-03-15T14:51:19.786Z,70.60
2018-03-15T14:53:49.165Z,71.10
2018-03-15T14:56:17.868Z,71.00
2018-03-15T14:58:46.725Z,70.30
2018-03-15T15:01:15.458Z,69.90
2018-03-15T15:03:45.078Z,69.90
2018-03-15T15:06:14.664Z,71.00
2018-03-15T15:08:43.613Z,70.90
2018-03-15T15:11:12.817Z,70.00
2018-03-15T15:13:42.373Z,70.20
2018-03-15T15:16:12.384Z,71.50
2018-03-15T15:18:41.989Z,71.40
2018-03-15T15:21:11.030Z,71.90
2018-03-15T15:23:39.661Z,72.70
2018-03-15T15:26:09.162Z,72.60
2018-03-15T15:28:37.933Z,72.60
2018-03-15T15:31:06.654Z,73.50
2018-03-15T15:33:35.278Z,74.40
2018-03-15T15:36:04.146Z,74.80
2018-03-15T15:38:33.090Z,74.40
2018-03-15T15:41:02.615Z,74.80
2018-03-15T15:43:32.799Z,75.30
2018-03-15T15:46:02.337Z,74.80
2018-03-15T15:48:31.118Z,74.80
2018-03-15T15:51:00.185Z,74.20
2018-03-15T15:53:29.220Z,74.60
2018-03-15T15:55:58.051Z,74.30
2018-03-15T15:58:26.825Z,74.70
2018-03-15T16:00:55.591Z,75.40
2018-03-15T16:03:25.273Z,74.60
2018-03-15T16:05:54.723Z,75.00
2018-03-15T16:08:23.999Z,75.00
2018-03-15T16:10:53.351Z,75.20
2018-03-15T16:13:23.716Z,76.10
2018-03-15T16:15:53.298Z,76.20
2018-03-15T16:18:22.191Z,75.70
2018-03-15T16:20:51.060Z,76.70
2018-03-15T16:23:20.192Z,77.20
2018-03-15T16:25:49.775Z,77.60
2018-03-15T16:28:19.036Z,77.60
2018-03-15T16:30:47.953Z,78.00
2018-03-15T16:33:17.831Z,77.20
2018-03-15T16:35:48.017Z,77.80
2018-03-15T16:38:17.378Z,78.00
2018-03-15T16:40:47.086Z,77.80
2018-03-15T16:43:16.824Z,78.20
2018-03-15T16:45:45.792Z,78.20
2018-03-15T16:48:14.714Z,78.30
2018-03-15T16:50:43.762Z,78.80
2018-03-15T16:53:13.692Z,78.90
2018-03-15T16:55:43.193Z,79.00
2018-03-15T16:58:12.485Z,79.00
2018-03-15T17:00:41.370Z,79.50
2018-03-15T17:03:10.741Z,80.60
2018-03-15T17:05:39.887Z,79.80
2018-03-15T17:08:09.968Z,80.30
2018-03-15T17:10:38.923Z,79.70
2018-03-15T17:13:08.426Z,79.70
2018-03-15T17:15:37.304Z,79.70
2018-03-15T17:18:06.693Z,80.40
2018-03-15T17:20:35.437Z,80.40
2018-03-15T17:23:04.402Z,80.70
2018-03-15T17:25:33.099Z,80.60
2018-03-15T17:28:02.131Z,80.30
2018-03-15T17:30:31.844Z,79.80
2018-03-15T17:33:00.944Z,79.80
2018-03-15T17:35:29.921Z,80.00
2018-03-15T17:38:00.920Z,80.10
2018-03-15T17:40:30.058Z,80.10
2018-03-15T17:42:59.023Z,80.30
2018-03-15T17:45:27.943Z,80.30
2018-03-15T17:47:56.829Z,80.60
2018-03-15T17:50:26.986Z,80.70
2018-03-15T17:52:56.578Z,80.60
2018-03-15T17:55:26.170Z,80.60
2018-03-15T17:57:55.106Z,80.50
2018-03-15T18:00:24.053Z,79.60
2018-03-15T18:02:53.694Z,79.90
2018-03-15T18:05:23.693Z,80.20
2018-03-15T18:07:53.299Z,80.10
2018-03-15T18:10:22.300Z,80.30
2018-03-15T18:12:51.473Z,79.70
2018-03-15T18:15:21.232Z,80.00
2018-03-15T18:17:50.336Z,79.90
2018-03-15T18:20:19.287Z,79.90
2018-03-15T18:22:48.301Z,80.00
2018-03-15T18:25:17.590Z,80.10
2018-03-15T18:27:46.464Z,80.50
2018-03-15T18:30:15.434Z,80.30
2018-03-15T18:32:45.522Z,81.10
2018-03-15T18:35:15.962Z,81.50
2018-03-15T18:37:45.447Z,80.70
2018-03-15T18:40:14.656Z,80.60
2018-03-15T18:42:44.216Z,81.00
2018-03-15T18:45:14.839Z,81.70
2018-03-15T18:47:43.690Z,81.70
2018-03-15T18:50:12.551Z,82.00
2018-03-15T18:52:41.764Z,81.70
2018-03-15T18:55:10.643Z,81.40
2018-03-15T18:57:41.468Z,81.60
2018-03-15T19:00:11.276Z,81.50
2018-03-15T19:02:40.627Z,81.60
2018-03-15T19:05:09.546Z,82.00
2018-03-15T19:07:39.376Z,81.40
2018-03-15T19:10:08.572Z,81.80
2018-03-15T19:12:37.826Z,82.40
2018-03-15T19:15:07.675Z,82.50
2018-03-15T19:17:37.278Z,82.40
2018-03-15T19:20:07.137Z,82.60
2018-03-15T19:22:36.595Z,82.50
2018-03-15T19:25:05.634Z,82.30
2018-03-15T19:27:35.483Z,82.30
2018-03-15T19:30:06.789Z,82.50
2018-03-15T19:32:37.038Z,82.40
2018-03-15T19:35:06.219Z,83.00
2018-03-15T19:37:35.870Z,83.00
2018-03-15T19:40:05.843Z,83.20
2018-03-15T19:42:34.980Z,83.20
2018-03-15T19:45:04.100Z,83.10
2018-03-15T19:47:35.805Z,83.20
2018-03-15T19:50:08.211Z,83.50
2018-03-15T19:52:38.273Z,83.60
2018-03-15T19:55:07.297Z,83.60
2018-03-15T19:57:36.212Z,83.10
2018-03-15T20:00:05.330Z,83.30
2018-03-15T20:02:34.304Z,83.30
2018-03-15T20:05:03.446Z,83.20
2018-03-15T20:07:32.416Z,83.50
2018-03-15T20:10:02.196Z,83.50
2018-03-15T20:12:31.354Z,83.40
2018-03-15T20:15:01.182Z,83.20
2018-03-15T20:17:30.469Z,83.20
2018-03-15T20:20:00.228Z,83.40
2018-03-15T20:22:34.674Z,83.40
2018-03-15T20:25:04.177Z,83.30
2018-03-15T20:27:38.512Z,83.50
2018-03-15T20:30:07.676Z,83.30
2018-03-15T20:32:52.001Z,83.30
2018-03-15T20:35:20.891Z,83.00
2018-03-15T20:37:51.742Z,82.90
2018-03-15T20:40:26.006Z,83.50
2018-03-15T20:42:55.777Z,83.50
2018-03-15T20:48:38.154Z,83.30
2018-03-15T20:51:06.860Z,83.50
2018-03-15T20:53:35.580Z,83.00
2018-03-15T20:56:05.227Z,83.30
2018-03-15T20:58:34.103Z,83.30
2018-03-15T21:01:03.268Z,83.20
2018-03-15T21:03:32.115Z,83.40
2018-03-15T21:06:00.900Z,82.90
2018-03-15T21:08:30.070Z,83.00
2018-03-15T21:10:58.706Z,83.40
2018-03-15T21:13:27.496Z,84.20
2018-03-15T21:15:58.037Z,83.70
2018-03-15T21:18:28.230Z,84.00
2018-03-15T21:20:57.157Z,84.10
2018-03-15T21:23:26.062Z,83.80
2018-03-15T21:25:54.764Z,84.20
2018-03-15T21:28:23.403Z,84.40
2018-03-15T21:30:52.884Z,84.50
2018-03-15T21:33:22.927Z,84.90
2018-03-15T21:35:51.804Z,84.50
2018-03-15T21:38:21.414Z,84.40
2018-03-15T21:40:50.958Z,84.40
2018-03-15T21:43:20.775Z,84.10
2018-03-15T21:45:51.168Z,84.20
2018-03-15T21:48:20.536Z,84.20
2018-03-15T21:50:49.346Z,84.30
2018-03-15T21:53:18.154Z,84.10
2018-03-15T21:55:47.793Z,84.20
2018-03-15T21:58:18.076Z,84.40
2018-03-15T22:00:46.928Z,84.40
2018-03-15T22:03:15.685Z,84.10
2018-03-15T22:05:44.601Z,84.10
2018-03-15T22:08:13.396Z,84.30
2018-03-15T22:10:42.422Z,84.60
2018-03-15T22:13:12.599Z,84.60
2018-03-15T22:15:42.097Z,84.60
2018-03-15T22:18:11.394Z,84.40
2018-03-15T22:20:40.201Z,84.60
2018-03-15T22:23:09.140Z,84.50
2018-03-15T22:25:37.887Z,84.50
2018-03-15T22:28:08.467Z,84.50
2018-03-15T22:30:38.152Z,84.70
2018-03-15T22:33:06.978Z,84.70
2018-03-15T22:35:35.786Z,84.70
2018-03-15T22:38:05.099Z,84.80
2018-03-15T22:40:33.952Z,84.80
2018-03-15T22:43:03.320Z,84.90
2018-03-15T22:45:32.644Z,85.10
2018-03-15T22:48:01.810Z,85.10
2018-03-15T22:50:30.661Z,85.10
2018-03-15T22:52:59.475Z,85.10
2018-03-15T22:55:28.260Z,85.20
2018-03-15T22:57:57.116Z,85.60
2018-03-15T23:00:25.758Z,85.50
2018-03-15T23:02:55.298Z,85.70
2018-03-15T23:05:24.066Z,85.70
2018-03-15T23:07:53.087Z,86.40
2018-03-15T23:10:22.467Z,87.90
2018-03-15T23:12:51.352Z,87.20
2018-03-15T23:15:21.125Z,87.60
2018-03-15T23:17:52.840Z,87.60
2018-03-15T23:20:22.438Z,87.80
2018-03-15T23:22:51.095Z,87.80
2018-03-15T23:25:19.848Z,88.20
2018-03-15T23:27:48.815Z,88.40
2018-03-15T23:30:17.570Z,88.40
2018-03-15T23:32:46.434Z,88.10
2018-03-15T23:35:15.072Z,88.00
2018-03-15T23:37:44.001Z,87.80
2018-03-15T23:40:12.893Z,87.90
2018-03-15T23:42:41.505Z,87.60
2018-03-15T23:45:10.583Z,87.70
2018-03-15T23:47:39.902Z,87.30
2018-03-15T23:50:08.772Z,87.00
2018-03-15T23:52:37.638Z,86.90
2018-03-15T23:55:06.363Z,87.00
2018-03-15T23:57:35.043Z,86.80
